Creede, CO (81130)

9:26 AM MST on February 12, 2016 (GMT -0700)
Blue Bird Lane | | Change Station
CLOSE
Current Station
Personal Weather Station
Location: Creede, CO
Elevation: 8907 ft
Nearby Weather Stations

Elev 8907 ft 37.77 °N, 107.00 °W | Updated 9 seconds ago

Clear
Clear
12.2 °F
Feels Like 12 °F
N
0.0
Wind Variable Wind from SE
Gusts 0.0 mph

Today
High -- | Low -- °F
--% Chance of Precip.
Yesterday
High -- | Low -- °F
Precip. -- in
Pressure 30.46 in
Visibility 10.0 miles
Clouds Clear
Windchill 12 °F
Dew Point -3 °F
Humidity 51%
Rainfall 0.00 in
Snow Depth Not available.
7:01 AM 5:42 PM
Waxing Crescent, 21% visible
METAR KPSO 121615Z AUTO 00000KT 10SM CLR 00/M10 A3046 RMK AO2 T00041096
Pressure 30.46 in
Visibility 10.0 miles
Clouds Clear
Windchill 12 °F
Dew Point -3 °F
Humidity 51%
Rainfall 0.00 in
Snow Depth Not available.
7:01 AM 5:42 PM
Waxing Crescent, 21% visible
METAR KPSO 121615Z AUTO 00000KT 10SM CLR 00/M10 A3046 RMK AO2 T00041096

10-Day Weather Forecast

Almanac

Astronomy

Feb. 12, 2016 Rise Set
Actual Time
Civil Twilight
Nautical Twilight
Astronomical Twilight
Moon
Length of Visible Light
Length of Day
Tomorrow will be .
, % of the Moon is Illuminated

Today's Extremes

State Highs State Lows

Community

WunderPhotos

Upload Photos

1,892,350 photos uploaded!

WunderBlog® & News

Nearby

Air Quality

  Air Quality AQ Index Pollutant
Not available.

Snow Depth

Station Depth Elevation

Earthquake Activity

City Distance Mag. Time & Date
Minimum magnitude displayed is 2.5.

Coastal Water Temperatures

Place Temperature

Stations

Nearby Weather Stations

Station Location Temp. Windchill Dew Point Humidity Wind Precip. Elev Updated Type
                   

Watches & Warnings

There are currently no watches in effect.